Rotterdam — PDGS — position and weather

sailwx.info

Track history (hours):
 
Tides and Currents Weather Stations Pressure Air Temp Water Temp Dewpoint Dewpoint Depression Visibility Wind Speed Wind Dir Waves Ship Positions

Rotterdam

Operator: Holland America Line

Last reported at 2019-May-20 02:00 UTC. Time now 2019-May-20 02:32 UTC.
Position N 61°08' E 006°33'.

Length 228 m; beam 29 m.

Type: Ship. MMSI: 24616700.

Date/timePositionNaut miles runAvg speedWind from/ knotsBaromVisibWave heightAir tempDewpointWater temp
2019-May-20 02:00N 61°08' E 006°33'816.4
2019-May-20 01:30N 61°07' E 006°17'917.8
2019-May-20 01:00N 61°08' E 005°58'917.8
2019-May-20 00:28N 61°07' E 005°39'817.6
2019-May-20 00:00N 61°03' E 005°24'817.1
2019-May-19 23:30N 61°06' E 005°07'917.2
2019-May-19 23:00N 61°01' E 004°52'816.7
2019-May-19 22:30N 60°55' E 004°40'713.3
2019-May-19 22:00N 60°50' E 004°32'714.8
2019-May-19 21:30N 60°43' E 004°26'816.1
2019-May-19 21:00N 60°36' E 004°21'816.8
2019-May-19 20:30N 60°27' E 004°16'714.8
2019-May-19 20:00N 60°20' E 004°11'816.0
2019-May-19 19:30N 60°12' E 004°11'815.8
2019-May-19 19:00N 60°05' E 004°11'816.0
2019-May-19 18:30N 59°57' E 004°11'816.1
2019-May-19 18:00N 59°49' E 004°11'816.3
2019-May-19 17:30N 59°40' E 004°11'816.8
2019-May-19 17:00N 59°32' E 004°11'918.7
2019-May-19 16:30N 59°23' E 004°11'918.0
2019-May-19 16:00N 59°13' E 004°12'918.3
2019-May-19 15:30N 59°04' E 004°12'917.8
2019-May-19 15:00N 58°55' E 004°13'917.5
2019-May-19 14:30N 58°47' E 004°18'917.7
2019-May-19 14:00N 58°38' E 004°23'917.5
2019-May-19 13:28N 58°30' E 004°28'917.8
2019-May-19 12:59N 58°22' E 004°33'917.9
2019-May-19 12:30N 58°13' E 004°38'817.0
2019-May-19 12:00N 58°05' E 004°43'917.8
2019-May-19 11:29N 57°56' E 004°48'918.3
2019-May-19 10:59N 57°48' E 004°53'918.5
2019-May-19 10:30N 57°39' E 004°58'918.4
2019-May-19 10:00N 57°30' E 005°03'918.5
2019-May-19 09:30N 57°21' E 005°08'918.4
2019-May-19 09:00N 57°13' E 005°13'1118.6
2019-May-19 08:25N 57°02' E 005°19'818.7
2019-May-19 08:00N 56°55' E 005°23'918.4
2019-May-19 07:29N 56°46' E 005°28'1120.3
2019-May-19 06:57N 56°35' E 005°30'1121.6
2019-May-19 06:28N 56°24' E 005°29'612.0
2019-May-19 06:00N 56°30' E 005°30'3537.6 110 / 131008.2 9.5 9.4 9.3
2019-May-19 05:04N 55°56' E 005°34'335.2
2019-May-19 05:00N 55°54' E 005°30'2356.8 020 / 101007.7 10.510.310.2
2019-May-19 04:59N 55°54' E 005°34'1121.1
2019-May-19 04:29N 55°43' E 005°35'2551.6
2019-May-19 04:00N 55°18' E 005°30'6120.3 020 / 101006.9 0.5 10.510.310.2
2019-May-19 01:00N 54°18' E 005°12'4615.6 350 / 181005.9 9.0 12.0
2019-May-18 22:01N 53°34' E 004°47'120.4
2019-May-18 21:59N 53°33' E 004°46'1120.3
2019-May-18 21:25N 53°23' E 004°40'820.1
2019-May-18 21:00N 53°15' E 004°34'1020.0
2019-May-18 20:30N 53°06' E 004°27'1020.0
2019-May-18 20:00N 52°57' E 004°19'1020.0
2019-May-18 19:30N 52°49' E 004°10'1019.9
2019-May-18 19:00N 52°40' E 004°02'918.9
2019-May-18 18:30N 52°32' E 003°55'1020.2
2019-May-18 18:00N 52°22' E 003°52'1020.2
2019-May-18 17:30N 52°12' E 003°53'1019.8
2019-May-18 17:00N 52°02' E 003°58'612.0
2019-May-18 16:30N 51°59' E 004°06'511.0
2019-May-18 16:00N 51°56' E 004°13'4 8.4
2019-May-18 15:31N 51°54' E 004°19'4 8.0
2019-May-18 15:00N 51°54' E 004°26'2 4.0
2019-May-18 14:28N 51°54' E 004°29'0 0.0
2019-May-18 13:58N 51°54' E 004°29'0 0.0
2019-May-18 13:28N 51°54' E 004°29'0 0.0
2019-May-18 12:58N 51°54' E 004°29'0 0.0
2019-May-18 12:28N 51°54' E 004°29'0 0.0
2019-May-18 11:58N 51°54' E 004°29'0 0.0
2019-May-18 11:28N 51°54' E 004°29'0 0.0
2019-May-18 10:58N 51°54' E 004°29'0 0.0
2019-May-18 10:28N 51°54' E 004°29'0 0.0
2019-May-18 09:58N 51°54' E 004°29'0 0.0
2019-May-18 09:28N 51°54' E 004°29'0 0.0
2019-May-18 08:58N 51°54' E 004°29'0 0.0
2019-May-18 08:28N 51°54' E 004°29'0 0.0
2019-May-18 07:58N 51°54' E 004°29'0 0.0
2019-May-18 07:28N 51°54' E 004°29'0 0.0
2019-May-18 06:58N 51°54' E 004°29'0 0.0
2019-May-18 06:28N 51°54' E 004°29'0 0.0
2019-May-18 05:58N 51°54' E 004°29'0 0.0
2019-May-18 05:28N 51°54' E 004°29'0 0.0
2019-May-18 04:58N 51°54' E 004°29'0 0.3
2019-May-18 04:30N 51°54' E 004°29'1 1.9
2019-May-18 04:00N 51°54' E 004°27'4 7.7
2019-May-18 03:30N 51°54' E 004°21'4 7.5
2019-May-18 03:00N 51°55' E 004°15'4 7.7
2019-May-18 02:30N 51°57' E 004°10'5 9.7
2019-May-18 02:00N 51°59' E 004°03'714.5
2019-May-18 01:31N 52°02' E 003°53'611.6
2019-May-18 01:00N 52°06' E 003°46'713.8
2019-May-18 00:31N 52°13' E 003°46'713.9
2019-May-18 00:01N 52°20' E 003°48'713.9
2019-May-17 23:30N 52°27' E 003°50'715.0
2019-May-17 23:01N 52°34' E 003°52'816.1
2019-May-17 22:30N 52°42' E 003°54'714.4
2019-May-17 22:00N 52°49' E 003°57'914.4
2019-May-17 21:24N 52°58' E 004°01'715.0
2019-May-17 20:56N 53°03' E 004°08'715.1
2019-May-17 20:31N 53°07' E 004°17'714.7
2019-May-17 20:01N 53°12' E 004°25'714.2
2019-May-17 19:30N 53°19' E 004°29'714.0
2019-May-17 19:00N 53°26' E 004°33'16015.4
2019-May-17 08:34N 56°02' E 005°35'116.2
2019-May-17 08:29N 56°03' E 005°35'816.0
2019-May-17 07:59N 56°11' E 005°35'816.1
2019-May-17 07:29N 56°19' E 005°37'917.0
2019-May-17 06:58N 56°28' E 005°38'917.6
2019-May-17 06:29N 56°36' E 005°38'816.0
2019-May-17 06:00N 56°44' E 005°36'816.1
2019-May-17 05:29N 56°52' E 005°32'816.5
2019-May-17 04:58N 56°60' E 005°27'816.5
2019-May-17 04:30N 57°07' E 005°21'816.0
2019-May-17 04:00N 57°14' E 005°15'815.5
2019-May-17 03:30N 57°22' E 005°10'815.9
2019-May-17 03:00N 57°29' E 005°05'815.9
2019-May-17 02:30N 57°37' E 004°60'815.7
2019-May-17 02:00N 57°44' E 004°54'816.2
2019-May-17 01:30N 57°52' E 004°49'917.8
2019-May-17 01:00N 58°00' E 004°43'918.4
2019-May-17 00:30N 58°08' E 004°37'918.2
2019-May-17 00:00N 58°17' E 004°31'917.9
2019-May-16 23:30N 58°25' E 004°25'917.8
2019-May-16 23:00N 58°34' E 004°19'918.0
2019-May-16 22:30N 58°42' E 004°13'918.2
2019-May-16 22:00N 58°51' E 004°07'917.8
2019-May-16 21:30N 58°59' E 004°02'917.6
2019-May-16 21:00N 59°08' E 004°03'917.9
2019-May-16 20:30N 59°17' E 004°07'917.4
2019-May-16 20:00N 59°25' E 004°12'917.1
2019-May-16 19:30N 59°33' E 004°17'917.5
2019-May-16 19:00N 59°41' E 004°22'917.8
2019-May-16 18:30N 59°50' E 004°27'917.4
2019-May-16 18:00N 59°58' E 004°34'917.3
2019-May-16 17:30N 60°04' E 004°47'816.6
2019-May-16 17:00N 60°09' E 005°01'713.0
2019-May-16 16:30N 60°13' E 005°10'714.7
2019-May-16 16:00N 60°20' E 005°11'4 8.6
2019-May-16 15:30N 60°24' E 005°15'2 3.8
2019-May-16 14:58N 60°24' E 005°19'0 0.0
2019-May-16 14:28N 60°24' E 005°19'0 0.0
2019-May-16 13:58N 60°24' E 005°19'0 0.0
2019-May-16 13:28N 60°24' E 005°19'0 0.0
2019-May-16 12:58N 60°24' E 005°19'0 0.0
2019-May-16 12:28N 60°24' E 005°19'0 0.0
2019-May-16 11:58N 60°24' E 005°19'0 0.0
2019-May-16 11:28N 60°24' E 005°19'0 0.0
2019-May-16 10:58N 60°24' E 005°19'0 0.0
2019-May-16 10:28N 60°24' E 005°19'0 0.0
2019-May-16 09:58N 60°24' E 005°19'0 0.0
2019-May-16 09:28N 60°24' E 005°19'0 0.0
2019-May-16 08:58N 60°24' E 005°19'0 0.0
2019-May-16 08:28N 60°24' E 005°19'0 0.0
2019-May-16 07:58N 60°24' E 005°19'0 0.0
2019-May-16 07:28N 60°24' E 005°19'0 0.0
2019-May-16 06:58N 60°24' E 005°19'0 0.0
2019-May-16 06:28N 60°24' E 005°19'0 0.0
2019-May-16 05:58N 60°24' E 005°19'0 0.0
2019-May-16 05:28N 60°24' E 005°19'0 0.2
2019-May-16 05:00N 60°24' E 005°18'4 8.4
2019-May-16 04:30N 60°23' E 005°10'713.6
2019-May-16 04:00N 60°28' E 005°00'918.1
2019-May-16 03:30N 60°36' E 004°53'816.9
2019-May-16 03:00N 60°44' E 004°45'815.7
2019-May-16 02:30N 60°48' E 004°32'816.6
2019-May-16 02:00N 60°54' E 004°19'816.8
2019-May-16 01:30N 60°60' E 004°07'815.9
2019-May-16 01:00N 61°07' E 004°00'917.2
2019-May-16 00:30N 61°16' E 004°01'917.4
2019-May-15 23:59N 61°25' E 004°01'817.7
2019-May-15 23:30N 61°33' E 004°01'917.8
2019-May-15 23:00N 61°42' E 004°01'918.4
2019-May-15 22:30N 61°51' E 004°01'1020.6
2019-May-15 22:00N 62°01' E 004°02'1121.2
2019-May-15 21:30N 62°08' E 004°20'1121.3
2019-May-15 21:00N 62°15' E 004°38'1020.8
2019-May-15 20:30N 62°21' E 004°56'1020.9
2019-May-15 20:00N 62°26' E 005°15'1121.0
2019-May-15 19:30N 62°31' E 005°35'1020.2
2019-May-15 19:00N 62°27' E 005°55'612.8
2019-May-15 18:30N 62°23' E 006°05'1020.3
2019-May-15 18:00N 62°25' E 006°27'1019.9
2019-May-15 17:28N 62°27' E 006°49'817.9
2019-May-15 17:00N 62°20' E 006°57'816.8
2019-May-15 16:31N 62°11' E 007°02'611.9
2019-May-15 16:00N 62°05' E 007°03'2 4.8
2019-May-15 15:30N 62°07' E 007°07'2 4.6
2019-May-15 14:58N 62°06' E 007°12'0 0.0
2019-May-15 14:28N 62°06' E 007°12'0 0.0
2019-May-15 13:58N 62°06' E 007°12'0 0.0
2019-May-15 13:28N 62°06' E 007°12'0 0.0
2019-May-15 12:58N 62°06' E 007°12'0 0.0
2019-May-15 12:28N 62°06' E 007°12'0 0.0
2019-May-15 11:58N 62°06' E 007°12'0 0.0
2019-May-15 11:25N 62°06' E 007°12'0 0.0
2019-May-15 10:58N 62°06' E 007°12'0 0.0
2019-May-15 10:28N 62°06' E 007°12'0 0.0
2019-May-15 09:58N 62°06' E 007°12'0 0.0
2019-May-15 09:25N 62°06' E 007°12'0 0.0
2019-May-15 08:58N 62°06' E 007°12'0 0.0
2019-May-15 08:28N 62°06' E 007°12'0 0.0
2019-May-15 07:58N 62°06' E 007°12'0 0.0
2019-May-15 07:28N 62°06' E 007°12'0 0.0
2019-May-15 06:58N 62°06' E 007°12'0 0.0
2019-May-15 06:28N 62°06' E 007°12'0 0.0
2019-May-15 05:58N 62°06' E 007°12'0 0.0
2019-May-15 05:28N 62°06' E 007°12'0 0.0
2019-May-15 04:59N 62°06' E 007°12'0 0.0
2019-May-15 04:31N 62°06' E 007°12'0 0.6
2019-May-15 04:00N 62°06' E 007°11'4 7.8
2019-May-15 03:30N 62°06' E 007°03'4 7.2
2019-May-15 03:00N 62°08' E 006°58'4 9.0
2019-May-15 02:30N 62°12' E 007°02'5 9.4
2019-May-15 02:00N 62°17' E 007°01'4 8.4
2019-May-15 01:30N 62°20' E 006°57'4 7.9
2019-May-15 01:00N 62°24' E 006°56'4 7.3
2019-May-15 00:29N 62°27' E 006°49'4 7.5
2019-May-14 23:59N 62°27' E 006°42'3 6.5
2019-May-14 23:29N 62°26' E 006°35'3 6.4
2019-May-14 23:00N 62°25' E 006°29'3 6.4
2019-May-14 22:29N 62°24' E 006°22'3 6.3
2019-May-14 22:00N 62°23' E 006°15'3 6.4
2019-May-14 21:29N 62°23' E 006°08'3 6.4
2019-May-14 21:00N 62°25' E 006°03'2 4.8
2019-May-14 20:30N 62°27' E 006°06'2 3.7
2019-May-14 20:00N 62°28' E 006°09'0 0.0
2019-May-14 19:25N 62°28' E 006°09'0 0.0
2019-May-14 18:58N 62°28' E 006°09'0 0.0
2019-May-14 18:28N 62°28' E 006°09'0 0.0
2019-May-14 17:58N 62°28' E 006°09'0 0.0
2019-May-14 17:28N 62°28' E 006°09'0 0.0
2019-May-14 16:58N 62°28' E 006°09'0 0.0
2019-May-14 16:22N 62°28' E 006°09'0 0.0
2019-May-14 15:58N 62°28' E 006°09'0 0.0
2019-May-14 15:28N 62°28' E 006°09'0 0.0
2019-May-14 14:58N 62°28' E 006°09'0 0.0
2019-May-14 14:28N 62°28' E 006°09'0 0.0
2019-May-14 13:55N 62°28' E 006°09'0 0.0
2019-May-14 13:28N 62°28' E 006°09'0 0.0
2019-May-14 13:00N 62°28' E 006°09'0 0.0
2019-May-14 12:30N 62°28' E 006°09'0 0.0
2019-May-14 12:00N 62°28' E 006°09'0 0.0
2019-May-14 11:30N 62°28' E 006°09'0 0.0
2019-May-14 10:59N 62°28' E 006°09'0 0.0
2019-May-14 10:30N 62°28' E 006°09'0 0.0
2019-May-14 10:00N 62°28' E 006°09'0 0.0
2019-May-14 09:30N 62°28' E 006°09'0 0.0
2019-May-14 09:01N 62°28' E 006°09'0 0.0
2019-May-14 08:28N 62°28' E 006°09'0 0.0
2019-May-14 07:59N 62°28' E 006°09'0 0.0
2019-May-14 07:30N 62°28' E 006°09'0 0.0
2019-May-14 06:46N 62°28' E 006°09'0 0.0
2019-May-14 06:16N 62°28' E 006°09'0 0.0
2019-May-14 05:58N 62°28' E 006°09'0 0.0
2019-May-14 05:30N 62°28' E 006°09'0 0.6
2019-May-14 05:01N 62°28' E 006°10'4 8.3
2019-May-14 04:30N 62°27' E 006°01'612.1
2019-May-14 04:00N 62°29' E 005°48'714.2
2019-May-14 03:30N 62°32' E 005°34'815.4
2019-May-14 03:00N 62°28' E 005°19'715.2
2019-May-14 02:30N 62°24' E 005°07'815.7
2019-May-14 02:00N 62°18' E 004°55'917.6
2019-May-14 01:30N 62°10' E 004°45'917.8
2019-May-14 01:00N 62°02' E 004°38'917.5
2019-May-14 00:30N 61°54' E 004°30'917.6
2019-May-14 00:00N 61°46' E 004°23'917.7
2019-May-13 23:30N 61°38' E 004°17'917.9
2019-May-13 23:00N 61°29' E 004°14'1018.9
2019-May-13 22:30N 61°19' E 004°14'1020.8
2019-May-13 22:00N 61°09' E 004°11'1020.8
2019-May-13 21:30N 60°59' E 004°08'1020.8
2019-May-13 21:00N 60°48' E 004°07'1020.7
2019-May-13 20:30N 60°39' E 004°13'1020.5
2019-May-13 20:00N 60°29' E 004°19'1020.5
2019-May-13 19:30N 60°19' E 004°25'918.6
2019-May-13 19:00N 60°12' E 004°39'1020.1
2019-May-13 18:30N 60°09' E 004°57'816.0
2019-May-13 18:00N 60°10' E 005°13'918.6
2019-May-13 17:30N 60°02' E 005°20'1019.9
2019-May-13 16:58N 59°53' E 005°32'5 9.5
2019-May-13 16:30N 59°50' E 005°38'1019.6
2019-May-13 16:00N 59°58' E 005°49'1120.6
2019-May-13 15:28N 60°06' E 006°04'715.8
2019-May-13 15:00N 60°13' E 006°04'815.5
2019-May-13 14:30N 60°19' E 006°14'1020.4
2019-May-13 14:00N 60°26' E 006°30'815.9
2019-May-13 13:30N 60°27' E 006°46'815.4
2019-May-13 12:59N 60°29' E 007°02'2 3.4
2019-May-13 12:29N 60°28' E 007°04'0 0.0
2019-May-13 11:56N 60°28' E 007°04'0 0.0
2019-May-13 11:29N 60°28' E 007°04'0 0.0
2019-May-13 10:59N 60°28' E 007°04'0 0.0
2019-May-13 10:26N 60°28' E 007°04'0 0.0
2019-May-13 09:56N 60°28' E 007°04'0 0.0
2019-May-13 09:29N 60°28' E 007°04'0 0.0
2019-May-13 08:56N 60°28' E 007°04'0 0.0
2019-May-13 08:26N 60°28' E 007°04'0 0.0
2019-May-13 07:59N 60°28' E 007°04'0 0.0
2019-May-13 07:29N 60°28' E 007°04'0 0.0
2019-May-13 06:59N 60°28' E 007°04'0 0.0
2019-May-13 06:29N 60°28' E 007°04'0 0.0
2019-May-13 05:56N 60°28' E 007°04'0 0.0
2019-May-13 05:26N 60°28' E 007°04'0 0.0
2019-May-13 04:59N 60°28' E 007°04'0 0.0
2019-May-13 04:30N 60°28' E 007°04'2 3.7
2019-May-13 04:00N 60°29' E 007°01'510.5
2019-May-13 03:30N 60°29' E 006°50'814.5
2019-May-13 02:58N 60°26' E 006°36'917.3
2019-May-13 02:29N 60°22' E 006°20'817.3
2019-May-13 02:00N 60°15' E 006°11'612.8
2019-May-13 01:30N 60°10' E 006°04'815.6
2019-May-13 01:00N 60°03' E 005°59'917.7
2019-May-13 00:30N 59°56' E 005°47'917.5
2019-May-13 00:00N 59°49' E 005°37'917.3
2019-May-12 23:30N 59°42' E 005°26'816.7
2019-May-12 23:00N 59°36' E 005°16'816.1
2019-May-12 22:30N 59°29' E 005°10'815.8
2019-May-12 22:00N 59°21' E 005°06'816.7
2019-May-12 21:30N 59°13' E 005°07'815.1
2019-May-12 21:00N 59°06' E 005°13'815.4
2019-May-12 20:31N 59°07' E 005°27'3 6.4
2019-May-12 20:00N 59°05' E 005°22'611.3
2019-May-12 19:30N 58°59' E 005°20'713.5
2019-May-12 19:00N 58°53' E 005°19'713.5
2019-May-12 18:30N 58°46' E 005°19'713.8
2019-May-12 18:00N 58°39' E 005°19'816.3
2019-May-12 17:30N 58°31' E 005°19'816.4
2019-May-12 17:00N 58°23' E 005°21'816.5
2019-May-12 16:30N 58°16' E 005°30'817.1
2019-May-12 16:00N 58°08' E 005°32'917.0
2019-May-12 15:29N 57°59' E 005°31'816.8
2019-May-12 15:00N 57°51' E 005°30'816.6
2019-May-12 14:30N 57°42' E 005°31'816.7
2019-May-12 14:00N 57°34' E 005°32'916.9
2019-May-12 13:30N 57°25' E 005°33'816.7
2019-May-12 13:00N 57°17' E 005°33'816.5
2019-May-12 12:30N 57°09' E 005°32'916.6
2019-May-12 12:00N 57°01' E 005°32'816.6
2019-May-12 11:30N 56°52' E 005°32'816.5
2019-May-12 11:00N 56°44' E 005°33'816.5
2019-May-12 10:30N 56°36' E 005°33'916.6
2019-May-12 09:59N 56°27' E 005°33'816.8
2019-May-12 09:30N 56°19' E 005°34'816.8
2019-May-12 09:00N 56°11' E 005°35'916.8
2019-May-12 08:30N 56°02' E 005°36'1116.7
2019-May-12 07:51N 55°52' E 005°36'616.9
2019-May-12 07:29N 55°45' E 005°35'14216.7
2019-May-11 23:02N 53°27' E 004°44'814.3
2019-May-11 22:29N 53°20' E 004°38'918.5
2019-May-11 22:01N 53°12' E 004°32'918.4
2019-May-11 21:31N 53°04' E 004°23'1018.4
2019-May-11 20:58N 52°56' E 004°16'918.2
2019-May-11 20:29N 52°48' E 004°09'918.2
2019-May-11 19:59N 52°40' E 003°60'918.2
2019-May-11 19:30N 52°32' E 003°55'918.2
2019-May-11 19:00N 52°23' E 003°53'917.7
2019-May-11 18:30N 52°14' E 003°53'917.2
2019-May-11 18:00N 52°06' E 003°54'5 9.2
2019-May-11 17:31N 52°01' E 003°57'714.4
2019-May-11 17:00N 51°58' E 004°08'611.2
2019-May-11 16:30N 51°55' E 004°15'4 7.8
2019-May-11 16:00N 51°54' E 004°21'4 7.7
2019-May-11 15:30N 51°54' E 004°27'1 2.6
2019-May-11 14:59N 51°54' E 004°29'0 0.0
2019-May-11 14:28N 51°54' E 004°29'0 0.0
2019-May-11 13:58N 51°54' E 004°29'0 0.0
2019-May-11 13:28N 51°54' E 004°29'0 0.0
2019-May-11 12:58N 51°54' E 004°29'0 0.0
2019-May-11 12:29N 51°54' E 004°29'0 0.0
2019-May-11 11:59N 51°54' E 004°29'0 0.0
2019-May-11 11:29N 51°54' E 004°29'0 0.0
2019-May-11 10:59N 51°54' E 004°29'0 0.0
2019-May-11 10:29N 51°54' E 004°29'0 0.0
2019-May-11 09:58N 51°54' E 004°29'0 0.0
2019-May-11 09:29N 51°54' E 004°29'0 0.0
2019-May-11 08:58N 51°54' E 004°29'0 0.0
2019-May-11 08:28N 51°54' E 004°29'0 0.0
2019-May-11 07:59N 51°54' E 004°29'0 0.0
2019-May-11 07:29N 51°54' E 004°29'0 0.0
2019-May-11 07:00N 51°54' E 004°29'0 0.0
2019-May-11 06:30N 51°54' E 004°29'0 0.0
2019-May-11 06:00N 51°54' E 004°29'0 0.0
2019-May-11 05:30N 51°54' E 004°29'0 0.6
2019-May-11 05:01N 51°54' E 004°29'3 5.0
2019-May-11 04:30N 51°54' E 004°25'4 7.5
2019-May-11 04:00N 51°54' E 004°19'510.5
2019-May-11 03:30N 51°57' E 004°11'5 9.0
2019-May-11 03:00N 51°59' E 004°05'4 7.1
2019-May-11 02:30N 51°60' E 003°60'4 7.1
2019-May-11 02:00N 52°01' E 003°54'5 9.0
2019-May-11 01:30N 52°04' E 003°48'713.0
2019-May-11 01:00N 52°10' E 003°46'714.2
2019-May-11 00:31N 52°17' E 003°47'713.8
2019-May-11 00:00N 52°24' E 003°49'714.2
2019-May-10 23:30N 52°31' E 003°51'714.0
2019-May-10 23:00N 52°38' E 003°53'714.2
2019-May-10 22:30N 52°45' E 003°55'714.3
2019-May-10 22:00N 52°52' E 003°58'1013.8
2019-May-10 21:15N 53°01' E 004°06'414.9
2019-May-10 21:01N 53°03' E 004°10'714.4
2019-May-10 20:31N 53°08' E 004°19'713.8
2019-May-10 20:01N 53°13' E 004°26'714.0
2019-May-10 19:30N 53°20' E 004°31'816.1
2019-May-10 19:00N 53°28' E 004°35'24117.1
2019-May-10 04:54N 57°01' E 007°51'1219.3
2019-May-10 04:18N 57°12' E 008°01'718.9
2019-May-10 03:55N 57°18' E 008°09'919.9
2019-May-10 03:28N 57°23' E 008°21'920.1
2019-May-10 03:00N 57°28' E 008°36'2020.2
2019-May-10 02:00N 57°38' E 009°09'  
Track history (hours):
 
Tides and Currents Weather Stations Pressure Air Temp Water Temp Dewpoint Dewpoint Depression Visibility Wind Speed Wind Dir Waves Ship Positions

Rotterdam

Operator: Holland America Line

Last reported at 2019-May-20 02:00 UTC. Time now 2019-May-20 02:33 UTC.
Position N 61°08' E 006°33'.

Length 228 m; beam 29 m.

Type: Ship. MMSI: 24616700.

Date/timePositionNaut miles runAvg speedWind from/ knotsBaromVisibWave heightAir tempDewpointWater temp
2019-May-20 02:00N 61°08' E 006°33'816.4
2019-May-20 01:30N 61°07' E 006°17'917.8
2019-May-20 01:00N 61°08' E 005°58'917.8
2019-May-20 00:28N 61°07' E 005°39'817.6
2019-May-20 00:00N 61°03' E 005°24'817.1
2019-May-19 23:30N 61°06' E 005°07'917.2
2019-May-19 23:00N 61°01' E 004°52'816.7
2019-May-19 22:30N 60°55' E 004°40'713.3
2019-May-19 22:00N 60°50' E 004°32'714.8
2019-May-19 21:30N 60°43' E 004°26'816.1
2019-May-19 21:00N 60°36' E 004°21'816.8
2019-May-19 20:30N 60°27' E 004°16'714.8
2019-May-19 20:00N 60°20' E 004°11'816.0
2019-May-19 19:30N 60°12' E 004°11'815.8
2019-May-19 19:00N 60°05' E 004°11'816.0
2019-May-19 18:30N 59°57' E 004°11'816.1
2019-May-19 18:00N 59°49' E 004°11'816.3
2019-May-19 17:30N 59°40' E 004°11'816.8
2019-May-19 17:00N 59°32' E 004°11'918.7
2019-May-19 16:30N 59°23' E 004°11'918.0
2019-May-19 16:00N 59°13' E 004°12'918.3
2019-May-19 15:30N 59°04' E 004°12'917.8
2019-May-19 15:00N 58°55' E 004°13'917.5
2019-May-19 14:30N 58°47' E 004°18'917.7
2019-May-19 14:00N 58°38' E 004°23'917.5
2019-May-19 13:28N 58°30' E 004°28'917.8
2019-May-19 12:59N 58°22' E 004°33'917.9
2019-May-19 12:30N 58°13' E 004°38'817.0
2019-May-19 12:00N 58°05' E 004°43'917.8
2019-May-19 11:29N 57°56' E 004°48'918.3
2019-May-19 10:59N 57°48' E 004°53'918.5
2019-May-19 10:30N 57°39' E 004°58'918.4
2019-May-19 10:00N 57°30' E 005°03'918.5
2019-May-19 09:30N 57°21' E 005°08'918.4
2019-May-19 09:00N 57°13' E 005°13'1118.6
2019-May-19 08:25N 57°02' E 005°19'818.7
2019-May-19 08:00N 56°55' E 005°23'918.4
2019-May-19 07:29N 56°46' E 005°28'1120.3
2019-May-19 06:57N 56°35' E 005°30'1121.6
2019-May-19 06:28N 56°24' E 005°29'612.0
2019-May-19 06:00N 56°30' E 005°30'3537.6 110 / 131008.2 9.5 9.4 9.3
2019-May-19 05:04N 55°56' E 005°34'335.2
2019-May-19 05:00N 55°54' E 005°30'2356.8 020 / 101007.7 10.510.310.2
2019-May-19 04:59N 55°54' E 005°34'1121.1
2019-May-19 04:29N 55°43' E 005°35'2551.6
2019-May-19 04:00N 55°18' E 005°30'6120.3 020 / 101006.9 0.5 10.510.310.2
2019-May-19 01:00N 54°18' E 005°12'4615.6 350 / 181005.9 9.0 12.0
2019-May-18 22:01N 53°34' E 004°47'120.4
2019-May-18 21:59N 53°33' E 004°46'1120.3
2019-May-18 21:25N 53°23' E 004°40'820.1
2019-May-18 21:00N 53°15' E 004°34'1020.0
2019-May-18 20:30N 53°06' E 004°27'1020.0
2019-May-18 20:00N 52°57' E 004°19'1020.0
2019-May-18 19:30N 52°49' E 004°10'1019.9
2019-May-18 19:00N 52°40' E 004°02'918.9
2019-May-18 18:30N 52°32' E 003°55'1020.2
2019-May-18 18:00N 52°22' E 003°52'1020.2
2019-May-18 17:30N 52°12' E 003°53'1019.8
2019-May-18 17:00N 52°02' E 003°58'612.0
2019-May-18 16:30N 51°59' E 004°06'511.0
2019-May-18 16:00N 51°56' E 004°13'4 8.4
2019-May-18 15:31N 51°54' E 004°19'4 8.0
2019-May-18 15:00N 51°54' E 004°26'2 4.0
2019-May-18 14:28N 51°54' E 004°29'0 0.0
2019-May-18 13:58N 51°54' E 004°29'0 0.0
2019-May-18 13:28N 51°54' E 004°29'0 0.0
2019-May-18 12:58N 51°54' E 004°29'0 0.0
2019-May-18 12:28N 51°54' E 004°29'0 0.0
2019-May-18 11:58N 51°54' E 004°29'0 0.0
2019-May-18 11:28N 51°54' E 004°29'0 0.0
2019-May-18 10:58N 51°54' E 004°29'0 0.0
2019-May-18 10:28N 51°54' E 004°29'0 0.0
2019-May-18 09:58N 51°54' E 004°29'0 0.0
2019-May-18 09:28N 51°54' E 004°29'0 0.0
2019-May-18 08:58N 51°54' E 004°29'0 0.0
2019-May-18 08:28N 51°54' E 004°29'0 0.0
2019-May-18 07:58N 51°54' E 004°29'0 0.0
2019-May-18 07:28N 51°54' E 004°29'0 0.0
2019-May-18 06:58N 51°54' E 004°29'0 0.0
2019-May-18 06:28N 51°54' E 004°29'0 0.0
2019-May-18 05:58N 51°54' E 004°29'0 0.0
2019-May-18 05:28N 51°54' E 004°29'0 0.0
2019-May-18 04:58N 51°54' E 004°29'0 0.3
2019-May-18 04:30N 51°54' E 004°29'1 1.9
2019-May-18 04:00N 51°54' E 004°27'4 7.7
2019-May-18 03:30N 51°54' E 004°21'4 7.5
2019-May-18 03:00N 51°55' E 004°15'4 7.7
2019-May-18 02:30N 51°57' E 004°10'5 9.7
2019-May-18 02:00N 51°59' E 004°03'714.5
2019-May-18 01:31N 52°02' E 003°53'611.6
2019-May-18 01:00N 52°06' E 003°46'713.8
2019-May-18 00:31N 52°13' E 003°46'713.9
2019-May-18 00:01N 52°20' E 003°48'713.9
2019-May-17 23:30N 52°27' E 003°50'715.0
2019-May-17 23:01N 52°34' E 003°52'816.1
2019-May-17 22:30N 52°42' E 003°54'714.4
2019-May-17 22:00N 52°49' E 003°57'914.4
2019-May-17 21:24N 52°58' E 004°01'715.0
2019-May-17 20:56N 53°03' E 004°08'715.1
2019-May-17 20:31N 53°07' E 004°17'714.7
2019-May-17 20:01N 53°12' E 004°25'714.2
2019-May-17 19:30N 53°19' E 004°29'714.0
2019-May-17 19:00N 53°26' E 004°33'16015.4
2019-May-17 08:34N 56°02' E 005°35'116.2
2019-May-17 08:29N 56°03' E 005°35'816.0
2019-May-17 07:59N 56°11' E 005°35'816.1
2019-May-17 07:29N 56°19' E 005°37'917.0
2019-May-17 06:58N 56°28' E 005°38'917.6
2019-May-17 06:29N 56°36' E 005°38'816.0
2019-May-17 06:00N 56°44' E 005°36'816.1
2019-May-17 05:29N 56°52' E 005°32'816.5
2019-May-17 04:58N 56°60' E 005°27'816.5
2019-May-17 04:30N 57°07' E 005°21'816.0
2019-May-17 04:00N 57°14' E 005°15'815.5
2019-May-17 03:30N 57°22' E 005°10'815.9
2019-May-17 03:00N 57°29' E 005°05'815.9
2019-May-17 02:30N 57°37' E 004°60'815.7
2019-May-17 02:00N 57°44' E 004°54'816.2
2019-May-17 01:30N 57°52' E 004°49'917.8
2019-May-17 01:00N 58°00' E 004°43'918.4
2019-May-17 00:30N 58°08' E 004°37'918.2
2019-May-17 00:00N 58°17' E 004°31'917.9
2019-May-16 23:30N 58°25' E 004°25'917.8
2019-May-16 23:00N 58°34' E 004°19'918.0
2019-May-16 22:30N 58°42' E 004°13'918.2
2019-May-16 22:00N 58°51' E 004°07'917.8
2019-May-16 21:30N 58°59' E 004°02'917.6
2019-May-16 21:00N 59°08' E 004°03'917.9
2019-May-16 20:30N 59°17' E 004°07'917.4
2019-May-16 20:00N 59°25' E 004°12'917.1
2019-May-16 19:30N 59°33' E 004°17'917.5
2019-May-16 19:00N 59°41' E 004°22'917.8
2019-May-16 18:30N 59°50' E 004°27'917.4
2019-May-16 18:00N 59°58' E 004°34'917.3
2019-May-16 17:30N 60°04' E 004°47'816.6
2019-May-16 17:00N 60°09' E 005°01'713.0
2019-May-16 16:30N 60°13' E 005°10'714.7
2019-May-16 16:00N 60°20' E 005°11'4 8.6
2019-May-16 15:30N 60°24' E 005°15'2 3.8
2019-May-16 14:58N 60°24' E 005°19'0 0.0
2019-May-16 14:28N 60°24' E 005°19'0 0.0
2019-May-16 13:58N 60°24' E 005°19'0 0.0
2019-May-16 13:28N 60°24' E 005°19'0 0.0
2019-May-16 12:58N 60°24' E 005°19'0 0.0
2019-May-16 12:28N 60°24' E 005°19'0 0.0
2019-May-16 11:58N 60°24' E 005°19'0 0.0
2019-May-16 11:28N 60°24' E 005°19'0 0.0
2019-May-16 10:58N 60°24' E 005°19'0 0.0
2019-May-16 10:28N 60°24' E 005°19'0 0.0
2019-May-16 09:58N 60°24' E 005°19'0 0.0
2019-May-16 09:28N 60°24' E 005°19'0 0.0
2019-May-16 08:58N 60°24' E 005°19'0 0.0
2019-May-16 08:28N 60°24' E 005°19'0 0.0
2019-May-16 07:58N 60°24' E 005°19'0 0.0
2019-May-16 07:28N 60°24' E 005°19'0 0.0
2019-May-16 06:58N 60°24' E 005°19'0 0.0
2019-May-16 06:28N 60°24' E 005°19'0 0.0
2019-May-16 05:58N 60°24' E 005°19'0 0.0
2019-May-16 05:28N 60°24' E 005°19'0 0.2
2019-May-16 05:00N 60°24' E 005°18'4 8.4
2019-May-16 04:30N 60°23' E 005°10'713.6
2019-May-16 04:00N 60°28' E 005°00'918.1
2019-May-16 03:30N 60°36' E 004°53'816.9
2019-May-16 03:00N 60°44' E 004°45'815.7
2019-May-16 02:30N 60°48' E 004°32'816.6
2019-May-16 02:00N 60°54' E 004°19'816.8
2019-May-16 01:30N 60°60' E 004°07'815.9
2019-May-16 01:00N 61°07' E 004°00'917.2
2019-May-16 00:30N 61°16' E 004°01'917.4
2019-May-15 23:59N 61°25' E 004°01'817.7
2019-May-15 23:30N 61°33' E 004°01'917.8
2019-May-15 23:00N 61°42' E 004°01'918.4
2019-May-15 22:30N 61°51' E 004°01'1020.6
2019-May-15 22:00N 62°01' E 004°02'1121.2
2019-May-15 21:30N 62°08' E 004°20'1121.3
2019-May-15 21:00N 62°15' E 004°38'1020.8
2019-May-15 20:30N 62°21' E 004°56'1020.9
2019-May-15 20:00N 62°26' E 005°15'1121.0
2019-May-15 19:30N 62°31' E 005°35'1020.2
2019-May-15 19:00N 62°27' E 005°55'612.8
2019-May-15 18:30N 62°23' E 006°05'1020.3
2019-May-15 18:00N 62°25' E 006°27'1019.9
2019-May-15 17:28N 62°27' E 006°49'817.9
2019-May-15 17:00N 62°20' E 006°57'816.8
2019-May-15 16:31N 62°11' E 007°02'611.9
2019-May-15 16:00N 62°05' E 007°03'2 4.8
2019-May-15 15:30N 62°07' E 007°07'2 4.6
2019-May-15 14:58N 62°06' E 007°12'0 0.0
2019-May-15 14:28N 62°06' E 007°12'0 0.0
2019-May-15 13:58N 62°06' E 007°12'0 0.0
2019-May-15 13:28N 62°06' E 007°12'0 0.0
2019-May-15 12:58N 62°06' E 007°12'0 0.0
2019-May-15 12:28N 62°06' E 007°12'0 0.0
2019-May-15 11:58N 62°06' E 007°12'0 0.0
2019-May-15 11:25N 62°06' E 007°12'0 0.0
2019-May-15 10:58N 62°06' E 007°12'0 0.0
2019-May-15 10:28N 62°06' E 007°12'0 0.0
2019-May-15 09:58N 62°06' E 007°12'0 0.0
2019-May-15 09:25N 62°06' E 007°12'0 0.0
2019-May-15 08:58N 62°06' E 007°12'0 0.0
2019-May-15 08:28N 62°06' E 007°12'0 0.0
2019-May-15 07:58N 62°06' E 007°12'0 0.0
2019-May-15 07:28N 62°06' E 007°12'0 0.0
2019-May-15 06:58N 62°06' E 007°12'0 0.0
2019-May-15 06:28N 62°06' E 007°12'0 0.0
2019-May-15 05:58N 62°06' E 007°12'0 0.0
2019-May-15 05:28N 62°06' E 007°12'0 0.0
2019-May-15 04:59N 62°06' E 007°12'0 0.0
2019-May-15 04:31N 62°06' E 007°12'0 0.6
2019-May-15 04:00N 62°06' E 007°11'4 7.8
2019-May-15 03:30N 62°06' E 007°03'4 7.2
2019-May-15 03:00N 62°08' E 006°58'4 9.0
2019-May-15 02:30N 62°12' E 007°02'5 9.4
2019-May-15 02:00N 62°17' E 007°01'4 8.4
2019-May-15 01:30N 62°20' E 006°57'4 7.9
2019-May-15 01:00N 62°24' E 006°56'4 7.3
2019-May-15 00:29N 62°27' E 006°49'4 7.5
2019-May-14 23:59N 62°27' E 006°42'3 6.5
2019-May-14 23:29N 62°26' E 006°35'3 6.4
2019-May-14 23:00N 62°25' E 006°29'3 6.4
2019-May-14 22:29N 62°24' E 006°22'3 6.3
2019-May-14 22:00N 62°23' E 006°15'3 6.4
2019-May-14 21:29N 62°23' E 006°08'3 6.4
2019-May-14 21:00N 62°25' E 006°03'2 4.8
2019-May-14 20:30N 62°27' E 006°06'2 3.7
2019-May-14 20:00N 62°28' E 006°09'0 0.0
2019-May-14 19:25N 62°28' E 006°09'0 0.0
2019-May-14 18:58N 62°28' E 006°09'0 0.0
2019-May-14 18:28N 62°28' E 006°09'0 0.0
2019-May-14 17:58N 62°28' E 006°09'0 0.0
2019-May-14 17:28N 62°28' E 006°09'0 0.0
2019-May-14 16:58N 62°28' E 006°09'0 0.0
2019-May-14 16:22N 62°28' E 006°09'0 0.0
2019-May-14 15:58N 62°28' E 006°09'0 0.0
2019-May-14 15:28N 62°28' E 006°09'0 0.0
2019-May-14 14:58N 62°28' E 006°09'0 0.0
2019-May-14 14:28N 62°28' E 006°09'0 0.0
2019-May-14 13:55N 62°28' E 006°09'0 0.0
2019-May-14 13:28N 62°28' E 006°09'0 0.0
2019-May-14 13:00N 62°28' E 006°09'0 0.0
2019-May-14 12:30N 62°28' E 006°09'0 0.0
2019-May-14 12:00N 62°28' E 006°09'0 0.0
2019-May-14 11:30N 62°28' E 006°09'0 0.0
2019-May-14 10:59N 62°28' E 006°09'0 0.0
2019-May-14 10:30N 62°28' E 006°09'0 0.0
2019-May-14 10:00N 62°28' E 006°09'0 0.0
2019-May-14 09:30N 62°28' E 006°09'0 0.0
2019-May-14 09:01N 62°28' E 006°09'0 0.0
2019-May-14 08:28N 62°28' E 006°09'0 0.0
2019-May-14 07:59N 62°28' E 006°09'0 0.0
2019-May-14 07:30N 62°28' E 006°09'0 0.0
2019-May-14 06:46N 62°28' E 006°09'0 0.0
2019-May-14 06:16N 62°28' E 006°09'0 0.0
2019-May-14 05:58N 62°28' E 006°09'0 0.0
2019-May-14 05:30N 62°28' E 006°09'0 0.6
2019-May-14 05:01N 62°28' E 006°10'4 8.3
2019-May-14 04:30N 62°27' E 006°01'612.1
2019-May-14 04:00N 62°29' E 005°48'714.2
2019-May-14 03:30N 62°32' E 005°34'815.4
2019-May-14 03:00N 62°28' E 005°19'715.2
2019-May-14 02:30N 62°24' E 005°07'815.7
2019-May-14 02:00N 62°18' E 004°55'917.6
2019-May-14 01:30N 62°10' E 004°45'917.8
2019-May-14 01:00N 62°02' E 004°38'917.5
2019-May-14 00:30N 61°54' E 004°30'917.6
2019-May-14 00:00N 61°46' E 004°23'917.7
2019-May-13 23:30N 61°38' E 004°17'917.9
2019-May-13 23:00N 61°29' E 004°14'1018.9
2019-May-13 22:30N 61°19' E 004°14'1020.8
2019-May-13 22:00N 61°09' E 004°11'1020.8
2019-May-13 21:30N 60°59' E 004°08'1020.8
2019-May-13 21:00N 60°48' E 004°07'1020.7
2019-May-13 20:30N 60°39' E 004°13'1020.5
2019-May-13 20:00N 60°29' E 004°19'1020.5
2019-May-13 19:30N 60°19' E 004°25'918.6
2019-May-13 19:00N 60°12' E 004°39'1020.1
2019-May-13 18:30N 60°09' E 004°57'816.0
2019-May-13 18:00N 60°10' E 005°13'918.6
2019-May-13 17:30N 60°02' E 005°20'1019.9
2019-May-13 16:58N 59°53' E 005°32'5 9.5
2019-May-13 16:30N 59°50' E 005°38'1019.6
2019-May-13 16:00N 59°58' E 005°49'1120.6
2019-May-13 15:28N 60°06' E 006°04'715.8
2019-May-13 15:00N 60°13' E 006°04'815.5
2019-May-13 14:30N 60°19' E 006°14'1020.4
2019-May-13 14:00N 60°26' E 006°30'815.9
2019-May-13 13:30N 60°27' E 006°46'815.4
2019-May-13 12:59N 60°29' E 007°02'2 3.4
2019-May-13 12:29N 60°28' E 007°04'0 0.0
2019-May-13 11:56N 60°28' E 007°04'0 0.0
2019-May-13 11:29N 60°28' E 007°04'0 0.0
2019-May-13 10:59N 60°28' E 007°04'0 0.0
2019-May-13 10:26N 60°28' E 007°04'0 0.0
2019-May-13 09:56N 60°28' E 007°04'0 0.0
2019-May-13 09:29N 60°28' E 007°04'0 0.0
2019-May-13 08:56N 60°28' E 007°04'0 0.0
2019-May-13 08:26N 60°28' E 007°04'0 0.0
2019-May-13 07:59N 60°28' E 007°04'0 0.0
2019-May-13 07:29N 60°28' E 007°04'0 0.0
2019-May-13 06:59N 60°28' E 007°04'0 0.0
2019-May-13 06:29N 60°28' E 007°04'0 0.0
2019-May-13 05:56N 60°28' E 007°04'0 0.0
2019-May-13 05:26N 60°28' E 007°04'0 0.0
2019-May-13 04:59N 60°28' E 007°04'0 0.0
2019-May-13 04:30N 60°28' E 007°04'2 3.7
2019-May-13 04:00N 60°29' E 007°01'510.5
2019-May-13 03:30N 60°29' E 006°50'814.5
2019-May-13 02:58N 60°26' E 006°36'917.3
2019-May-13 02:29N 60°22' E 006°20'817.3
2019-May-13 02:00N 60°15' E 006°11'612.8
2019-May-13 01:30N 60°10' E 006°04'815.6
2019-May-13 01:00N 60°03' E 005°59'917.7
2019-May-13 00:30N 59°56' E 005°47'917.5
2019-May-13 00:00N 59°49' E 005°37'917.3
2019-May-12 23:30N 59°42' E 005°26'816.7
2019-May-12 23:00N 59°36' E 005°16'816.1
2019-May-12 22:30N 59°29' E 005°10'815.8
2019-May-12 22:00N 59°21' E 005°06'816.7
2019-May-12 21:30N 59°13' E 005°07'815.1
2019-May-12 21:00N 59°06' E 005°13'815.4
2019-May-12 20:31N 59°07' E 005°27'3 6.4
2019-May-12 20:00N 59°05' E 005°22'611.3
2019-May-12 19:30N 58°59' E 005°20'713.5
2019-May-12 19:00N 58°53' E 005°19'713.5
2019-May-12 18:30N 58°46' E 005°19'713.8
2019-May-12 18:00N 58°39' E 005°19'816.3
2019-May-12 17:30N 58°31' E 005°19'816.4
2019-May-12 17:00N 58°23' E 005°21'816.5
2019-May-12 16:30N 58°16' E 005°30'817.1
2019-May-12 16:00N 58°08' E 005°32'917.0
2019-May-12 15:29N 57°59' E 005°31'816.8
2019-May-12 15:00N 57°51' E 005°30'816.6
2019-May-12 14:30N 57°42' E 005°31'816.7
2019-May-12 14:00N 57°34' E 005°32'916.9
2019-May-12 13:30N 57°25' E 005°33'816.7
2019-May-12 13:00N 57°17' E 005°33'816.5
2019-May-12 12:30N 57°09' E 005°32'916.6
2019-May-12 12:00N 57°01' E 005°32'816.6
2019-May-12 11:30N 56°52' E 005°32'816.5
2019-May-12 11:00N 56°44' E 005°33'816.5
2019-May-12 10:30N 56°36' E 005°33'916.6
2019-May-12 09:59N 56°27' E 005°33'816.8
2019-May-12 09:30N 56°19' E 005°34'816.8
2019-May-12 09:00N 56°11' E 005°35'916.8
2019-May-12 08:30N 56°02' E 005°36'1116.7
2019-May-12 07:51N 55°52' E 005°36'616.9
2019-May-12 07:29N 55°45' E 005°35'14216.7
2019-May-11 23:02N 53°27' E 004°44'814.3
2019-May-11 22:29N 53°20' E 004°38'918.5
2019-May-11 22:01N 53°12' E 004°32'918.4
2019-May-11 21:31N 53°04' E 004°23'1018.4
2019-May-11 20:58N 52°56' E 004°16'918.2
2019-May-11 20:29N 52°48' E 004°09'918.2
2019-May-11 19:59N 52°40' E 003°60'918.2
2019-May-11 19:30N 52°32' E 003°55'918.2
2019-May-11 19:00N 52°23' E 003°53'917.7
2019-May-11 18:30N 52°14' E 003°53'917.2
2019-May-11 18:00N 52°06' E 003°54'5 9.2
2019-May-11 17:31N 52°01' E 003°57'714.4
2019-May-11 17:00N 51°58' E 004°08'611.2
2019-May-11 16:30N 51°55' E 004°15'4 7.8
2019-May-11 16:00N 51°54' E 004°21'4 7.7
2019-May-11 15:30N 51°54' E 004°27'1 2.6
2019-May-11 14:59N 51°54' E 004°29'0 0.0
2019-May-11 14:28N 51°54' E 004°29'0 0.0
2019-May-11 13:58N 51°54' E 004°29'0 0.0
2019-May-11 13:28N 51°54' E 004°29'0 0.0
2019-May-11 12:58N 51°54' E 004°29'0 0.0
2019-May-11 12:29N 51°54' E 004°29'0 0.0
2019-May-11 11:59N 51°54' E 004°29'0 0.0
2019-May-11 11:29N 51°54' E 004°29'0 0.0
2019-May-11 10:59N 51°54' E 004°29'0 0.0
2019-May-11 10:29N 51°54' E 004°29'0 0.0
2019-May-11 09:58N 51°54' E 004°29'0 0.0
2019-May-11 09:29N 51°54' E 004°29'0 0.0
2019-May-11 08:58N 51°54' E 004°29'0 0.0
2019-May-11 08:28N 51°54' E 004°29'0 0.0
2019-May-11 07:59N 51°54' E 004°29'0 0.0
2019-May-11 07:29N 51°54' E 004°29'0 0.0
2019-May-11 07:00N 51°54' E 004°29'0 0.0
2019-May-11 06:30N 51°54' E 004°29'0 0.0
2019-May-11 06:00N 51°54' E 004°29'0 0.0
2019-May-11 05:30N 51°54' E 004°29'0 0.6
2019-May-11 05:01N 51°54' E 004°29'3 5.0
2019-May-11 04:30N 51°54' E 004°25'4 7.5
2019-May-11 04:00N 51°54' E 004°19'510.5
2019-May-11 03:30N 51°57' E 004°11'5 9.0
2019-May-11 03:00N 51°59' E 004°05'4 7.1
2019-May-11 02:30N 51°60' E 003°60'4 7.1
2019-May-11 02:00N 52°01' E 003°54'5 9.0
2019-May-11 01:30N 52°04' E 003°48'713.0
2019-May-11 01:00N 52°10' E 003°46'714.2
2019-May-11 00:31N 52°17' E 003°47'713.8
2019-May-11 00:00N 52°24' E 003°49'714.2
2019-May-10 23:30N 52°31' E 003°51'714.0
2019-May-10 23:00N 52°38' E 003°53'714.2
2019-May-10 22:30N 52°45' E 003°55'714.3
2019-May-10 22:00N 52°52' E 003°58'1013.8
2019-May-10 21:15N 53°01' E 004°06'414.9
2019-May-10 21:01N 53°03' E 004°10'714.4
2019-May-10 20:31N 53°08' E 004°19'713.8
2019-May-10 20:01N 53°13' E 004°26'714.0
2019-May-10 19:30N 53°20' E 004°31'816.1
2019-May-10 19:00N 53°28' E 004°35'24117.1
2019-May-10 04:54N 57°01' E 007°51'1219.3
2019-May-10 04:18N 57°12' E 008°01'718.9
2019-May-10 03:55N 57°18' E 008°09'919.9
2019-May-10 03:28N 57°23' E 008°21'920.1
2019-May-10 03:00N 57°28' E 008°36'2020.2
2019-May-10 02:00N 57°38' E 009°09'  

Dump ship's entire track history